createdAt,value
2024-01-18T00:10:47.991Z,20.03
2024-01-18T00:16:42.681Z,19.00
2024-01-18T00:22:14.923Z,14.00
2024-01-18T00:33:19.262Z,14.50
2024-01-18T00:56:44.624Z,15.57
2024-01-18T01:02:48.679Z,20.10
2024-01-18T01:08:10.755Z,18.70
2024-01-18T01:19:41.511Z,16.17
2024-01-18T01:25:14.051Z,16.00
2024-01-18T01:42:38.882Z,15.73
2024-01-18T01:48:15.733Z,15.40
2024-01-18T01:54:03.174Z,16.27
2024-01-18T02:05:22.106Z,17.73
2024-01-18T02:10:48.320Z,16.57
2024-01-18T02:27:53.013Z,16.60
2024-01-18T02:33:23.468Z,17.03
2024-01-18T02:44:10.714Z,15.07
2024-01-18T02:56:08.688Z,13.70
2024-01-18T03:01:57.062Z,11.77
2024-01-18T03:07:32.482Z,11.50
2024-01-18T03:13:14.517Z,11.23
2024-01-18T03:18:33.453Z,14.10
2024-01-18T03:24:34.228Z,10.70
2024-01-18T03:36:07.454Z,13.17
2024-01-18T03:41:42.736Z,14.43
2024-01-18T03:47:13.518Z,11.77
2024-01-18T03:52:51.024Z,11.97
2024-01-18T03:58:50.020Z,14.93
2024-01-18T04:04:51.118Z,14.50
2024-01-18T04:22:15.019Z,13.97
2024-01-18T04:28:03.046Z,14.80
2024-01-18T04:33:52.051Z,16.40
2024-01-18T04:39:34.769Z,16.27
2024-01-18T05:02:34.017Z,15.73
2024-01-18T05:08:36.273Z,13.00
2024-01-18T05:14:00.680Z,15.27
2024-01-18T05:19:36.485Z,15.37
2024-01-18T05:24:40.484Z,14.80
2024-01-18T05:30:31.563Z,11.97
2024-01-18T05:36:25.550Z,15.73
2024-01-18T05:42:02.552Z,17.43
2024-01-18T05:47:47.211Z,15.60
2024-01-18T05:53:14.449Z,16.33
2024-01-18T05:58:49.167Z,12.83
2024-01-18T06:04:04.067Z,16.53
2024-01-18T06:09:42.953Z,14.27
2024-01-18T06:15:11.828Z,13.40
2024-01-18T06:19:55.707Z,13.97
2024-01-18T06:24:39.325Z,12.90
2024-01-18T06:29:27.498Z,15.30
2024-01-18T06:46:27.729Z,13.80
2024-01-18T06:52:42.320Z,15.70
2024-01-18T06:58:13.029Z,14.97
2024-01-18T07:09:22.404Z,14.20
2024-01-18T07:20:58.219Z,14.77
2024-01-18T07:26:56.873Z,18.20
2024-01-18T07:39:04.628Z,12.60
2024-01-18T07:51:53.291Z,17.13
2024-01-18T08:02:56.299Z,16.43
2024-01-18T08:15:00.977Z,17.87
2024-01-18T08:20:52.607Z,17.93
2024-01-18T08:26:33.547Z,19.97
2024-01-18T08:39:33.328Z,18.23
2024-01-18T08:57:25.437Z,22.13
2024-01-18T09:03:45.880Z,21.57
2024-01-18T09:09:12.439Z,18.40
2024-01-18T09:28:04.613Z,22.10
2024-01-18T09:34:17.210Z,20.40
2024-01-18T09:46:00.016Z,22.20
2024-01-18T10:04:22.295Z,23.97
2024-01-18T10:10:29.149Z,26.07
2024-01-18T10:16:34.003Z,24.50
2024-01-18T10:23:03.670Z,20.80
2024-01-18T10:29:08.278Z,20.00
2024-01-18T10:34:42.776Z,20.27
2024-01-18T10:40:49.545Z,20.43
2024-01-18T10:53:24.953Z,20.60
2024-01-18T11:30:15.672Z,28.17
2024-01-18T11:46:13.870Z,27.93
2024-01-18T11:51:03.444Z,27.60
2024-01-18T12:02:09.330Z,24.20
2024-01-18T12:46:30.148Z,20.73
2024-01-18T12:58:29.120Z,31.73
2024-01-18T13:30:46.810Z,26.60
2024-01-18T13:44:24.804Z,26.17
2024-01-18T13:50:56.865Z,26.20
2024-01-18T13:56:04.135Z,31.93
2024-01-18T14:00:52.860Z,25.57
2024-01-18T14:05:42.748Z,26.63
2024-01-18T14:10:29.355Z,26.50
2024-01-18T14:15:14.800Z,27.10
2024-01-18T14:20:10.328Z,29.43
2024-01-18T14:24:53.875Z,28.27
2024-01-18T14:29:37.393Z,33.30
2024-01-18T14:34:22.079Z,29.33
2024-01-18T14:39:18.003Z,30.03
2024-01-18T14:44:03.380Z,27.77
2024-01-18T14:48:47.620Z,31.30
2024-01-18T14:53:32.336Z,62.50
2024-01-18T14:58:27.099Z,43.23
2024-01-18T15:03:16.789Z,46.90
2024-01-18T15:08:07.403Z,39.33
2024-01-18T15:12:51.195Z,33.10
2024-01-18T15:17:43.181Z,32.20
2024-01-18T15:22:27.700Z,35.43
2024-01-18T15:27:16.795Z,30.07
2024-01-18T15:32:02.415Z,28.80
2024-01-18T15:36:49.113Z,29.83
2024-01-18T15:41:36.481Z,29.43
2024-01-18T15:46:27.296Z,35.80
2024-01-18T15:51:13.757Z,28.43
2024-01-18T15:56:02.933Z,31.27
2024-01-18T16:00:51.300Z,32.63
2024-01-18T16:05:42.310Z,30.90
2024-01-18T16:10:29.401Z,27.00
2024-01-18T16:15:17.146Z,29.20
2024-01-18T16:20:07.173Z,29.37
2024-01-18T16:24:50.927Z,27.90
2024-01-18T16:29:50.910Z,29.73
2024-01-18T16:34:44.978Z,26.80
2024-01-18T16:39:34.829Z,26.60
2024-01-18T16:44:20.238Z,26.50
2024-01-18T16:49:07.669Z,30.77
2024-01-18T16:54:00.756Z,33.80
2024-01-18T16:58:44.616Z,30.30
2024-01-18T17:03:34.232Z,30.77
2024-01-18T17:08:19.597Z,34.37
2024-01-18T17:13:11.881Z,28.73
2024-01-18T17:17:55.650Z,32.07
2024-01-18T17:22:45.687Z,41.67
2024-01-18T17:27:31.122Z,37.37
2024-01-18T17:32:23.670Z,37.57
2024-01-18T17:37:07.479Z,35.60
2024-01-18T17:41:56.943Z,31.80
2024-01-18T17:46:46.224Z,33.83
2024-01-18T17:51:47.321Z,37.07
2024-01-18T17:56:37.280Z,34.95
2024-01-18T18:01:23.991Z,31.33
2024-01-18T18:06:17.719Z,28.80
2024-01-18T18:11:05.826Z,38.30
2024-01-18T18:15:51.225Z,40.30
2024-01-18T18:20:34.998Z,45.17
2024-01-18T18:25:23.283Z,44.47
2024-01-18T18:30:16.748Z,41.90
2024-01-18T18:35:14.754Z,43.37
2024-01-18T18:40:09.891Z,42.13
2024-01-18T18:44:53.574Z,38.20
2024-01-18T18:49:40.880Z,35.87
2024-01-18T18:54:27.429Z,36.33
2024-01-18T18:59:20.178Z,38.37
2024-01-18T19:04:03.778Z,43.20
2024-01-18T19:08:52.868Z,42.07
2024-01-18T19:13:44.929Z,40.30
2024-01-18T19:18:28.545Z,40.30
2024-01-18T19:23:18.397Z,39.27
2024-01-18T19:28:07.346Z,34.93
2024-01-18T19:32:52.303Z,37.97
2024-01-18T19:37:40.069Z,34.40
2024-01-18T19:42:27.518Z,35.23
2024-01-18T19:47:15.300Z,37.97
2024-01-18T19:52:04.741Z,37.33
2024-01-18T19:56:54.392Z,38.93
2024-01-18T20:01:39.704Z,35.93
2024-01-18T20:06:39.223Z,36.40
2024-01-18T20:11:30.459Z,33.03
2024-01-18T20:16:23.250Z,32.67
2024-01-18T20:21:09.971Z,33.90
2024-01-18T20:25:56.992Z,29.87
2024-01-18T20:30:44.221Z,37.33
2024-01-18T20:35:34.456Z,34.60
2024-01-18T20:40:21.341Z,37.70
2024-01-18T20:45:08.554Z,36.80
2024-01-18T20:49:55.206Z,35.93
2024-01-18T20:54:47.817Z,34.50
2024-01-18T20:59:31.525Z,44.40
2024-01-18T21:04:24.116Z,41.10
2024-01-18T21:09:23.347Z,44.63
2024-01-18T21:14:13.306Z,35.93
2024-01-18T21:18:59.937Z,39.00
2024-01-18T21:23:47.816Z,39.00
2024-01-18T21:28:35.490Z,44.93
2024-01-18T21:33:25.245Z,36.23
2024-01-18T21:38:12.619Z,40.20
2024-01-18T21:43:00.082Z,32.37
2024-01-18T21:47:45.628Z,36.17
2024-01-18T21:52:32.321Z,35.60
2024-01-18T21:57:17.138Z,35.13
2024-01-18T22:02:02.302Z,31.27
2024-01-18T22:06:48.312Z,35.50
2024-01-18T22:11:31.819Z,31.53
2024-01-18T22:16:21.305Z,29.90
2024-01-18T22:21:08.706Z,26.90
2024-01-18T22:25:57.826Z,28.97
2024-01-18T22:30:43.165Z,32.40
2024-01-18T22:35:36.249Z,31.07
2024-01-18T22:40:21.203Z,29.63
2024-01-18T22:45:11.083Z,28.63
2024-01-18T22:49:56.605Z,32.67
2024-01-18T22:54:42.944Z,32.90
2024-01-18T22:59:35.244Z,27.47
2024-01-18T23:04:18.819Z,30.70
2024-01-18T23:09:05.797Z,28.70
2024-01-18T23:13:52.563Z,29.40
2024-01-18T23:18:40.736Z,26.87
2024-01-18T23:23:29.894Z,23.07
2024-01-18T23:28:16.752Z,26.53
2024-01-18T23:33:06.894Z,25.40
2024-01-18T23:37:51.829Z,19.83
2024-01-18T23:42:40.794Z,26.03
2024-01-18T23:47:29.263Z,21.77
2024-01-18T23:52:14.749Z,20.10
2024-01-18T23:57:07.199Z,21.83
